Friendship, Maryland
Current Conditions -  °F | °C
As of 4:55 PM on Saturday 20 Dec 2014 (Local Time) from KADW Reporting Station
Scattered Clouds Scattered Clouds  
Wind Chill: 35°   Ceiling: Unl
Heat Index: 35°   Visibility: 10mi
Dew Point: 21°   Wind: 3mph
Humidity: 57%   Direction: 250°WSW
Pressure: 30.26"   Gusts: NA
Location:  38.74°N, 76.59°W
Report Text: KADW 202155Z 25003KT 10SM SCT120 02/M06 A3026 RMK AO2A SLP253 T00181059
Loading
Personal Weather Stations






























Interactive Weather Map New forecast layout! Learn more

10-Day Weather Forecast

Advertisements
Track Severe Weather on mobile